Time;durP1;ratioP1;P1;durP2;ratioP2;P2;SDS_P1;SDS_P2;PMS_P1;PMS_P2;Temp;Humidity;BMP_temperature;BMP_pressure;BME280_temperature;BME280_humidity;BME280_pressure;Samples;Min_cycle;Max_cycle;Signal;HPM_P1;HPM_P2
2021/09/30 00:00:47;;;;;;;14.60;2.95;;;;;;;;;;5072505;28;20095;-37
2021/09/30 00:03:15;;;;;;;11.80;3.03;;;;;;;;;;5076485;28;20021;-37
2021/09/30 00:05:43;;;;;;;18.50;3.20;;;;;;;;;;5066710;28;20035;-38
2021/09/30 00:08:11;;;;;;;16.98;3.28;;;;;;;;;;5057222;28;20043;-36
2021/09/30 00:10:45;;;;;;;17.38;2.60;;;;;;;;;;5072906;28;20117;-36
2021/09/30 00:13:59;;;;;;;11.52;2.85;;;;;;;;;;5076693;28;20078;-37
2021/09/30 00:32:37;;;;;;;15.90;3.13;;;;;;;;;;5064911;28;20116;-39
2021/09/30 00:40:32;;;;;;;16.92;2.97;;;;;;;;;;5069555;28;20089;-41
2021/09/30 00:51:13;;;;;;;10.48;3.30;;;;;;;;;;5066804;28;20101;-39
2021/09/30 01:22:55;;;;;;;12.75;2.83;;;;;;;;;;5063841;28;20551;-40
2021/09/30 02:26:30;;;;;;;12.60;3.05;;;;;;;;;;5069182;28;20036;-40
2021/09/30 02:35:14;;;;;;;9.90;2.72;;;;;;;;;;5071918;28;20116;-42
2021/09/30 02:59:08;;;;;;;14.68;2.70;;;;;;;;;;5051029;28;20052;-42
2021/09/30 03:01:37;;;;;;;4.43;2.30;;;;;;;;;;5051994;28;20021;-47
2021/09/30 03:04:04;;;;;;;10.75;2.42;;;;;;;;;;5051306;28;20025;-42
2021/09/30 03:06:32;;;;;;;8.25;2.72;;;;;;;;;;5050694;28;20434;-45
2021/09/30 03:09:01;;;;;;;16.42;3.00;;;;;;;;;;5050470;28;20882;-41
2021/09/30 03:11:29;;;;;;;11.10;2.72;;;;;;;;;;5055195;28;20437;-41
2021/09/30 03:13:58;;;;;;;10.98;2.53;;;;;;;;;;5055243;28;20547;-42
2021/09/30 03:17:03;;;;;;;5.57;2.30;;;;;;;;;;5054701;28;20029;-45
2021/09/30 03:24:46;;;;;;;6.60;2.40;;;;;;;;;;5055147;28;20036;-44
2021/09/30 03:27:14;;;;;;;6.75;2.10;;;;;;;;;;5036512;28;20400;-44
2021/09/30 03:29:41;;;;;;;5.60;2.08;;;;;;;;;;5035936;28;20036;-41
2021/09/30 03:32:09;;;;;;;8.73;2.00;;;;;;;;;;5055153;28;20599;-41
2021/09/30 03:34:36;;;;;;;8.93;2.17;;;;;;;;;;5054822;28;20495;-41
2021/09/30 03:37:03;;;;;;;6.20;2.20;;;;;;;;;;5054547;28;20396;-41
2021/09/30 03:39:31;;;;;;;11.30;2.40;;;;;;;;;;5053495;28;20025;-41
2021/09/30 03:41:59;;;;;;;5.70;2.42;;;;;;;;;;5053483;28;20033;-46
2021/09/30 03:44:27;;;;;;;11.05;2.30;;;;;;;;;;5054876;28;20075;-42
2021/09/30 03:46:54;;;;;;;5.65;2.15;;;;;;;;;;5053936;28;20045;-41
2021/09/30 03:49:25;;;;;;;4.30;2.03;;;;;;;;;;5054311;28;20023;-41
2021/09/30 03:52:05;;;;;;;5.68;2.22;;;;;;;;;;5068351;28;20087;-44
2021/09/30 03:54:41;;;;;;;6.07;2.20;;;;;;;;;;5074415;28;20124;-41
2021/09/30 03:57:23;;;;;;;6.70;2.08;;;;;;;;;;5074208;28;20064;-41
2021/09/30 03:59:50;;;;;;;7.53;2.50;;;;;;;;;;5073180;28;20107;-41
2021/09/30 04:02:17;;;;;;;7.95;2.20;;;;;;;;;;5071038;28;20029;-41
2021/09/30 04:04:44;;;;;;;6.78;2.40;;;;;;;;;;5074226;28;20078;-41
2021/09/30 04:07:11;;;;;;;9.80;2.35;;;;;;;;;;5073856;28;20395;-40
2021/09/30 04:09:40;;;;;;;9.07;2.33;;;;;;;;;;5073705;28;20098;-42
2021/09/30 04:12:11;;;;;;;6.43;2.30;;;;;;;;;;5069787;28;20674;-42
2021/09/30 04:14:38;;;;;;;6.68;2.70;;;;;;;;;;5074250;28;20024;-43
2021/09/30 04:17:06;;;;;;;7.90;2.40;;;;;;;;;;5074241;28;20025;-41
2021/09/30 04:19:33;;;;;;;7.00;2.90;;;;;;;;;;5055277;28;20024;-41
2021/09/30 04:22:00;;;;;;;6.60;2.42;;;;;;;;;;5069531;28;20020;-40
2021/09/30 04:24:27;;;;;;;8.63;2.33;;;;;;;;;;5074263;28;20074;-40
2021/09/30 04:26:58;;;;;;;6.63;2.20;;;;;;;;;;5073799;28;20400;-41
2021/09/30 04:29:25;;;;;;;7.80;2.58;;;;;;;;;;5073337;28;20017;-41
2021/09/30 04:31:52;;;;;;;5.22;2.10;;;;;;;;;;5069349;28;20518;-42
2021/09/30 04:34:19;;;;;;;5.85;2.20;;;;;;;;;;5073673;28;20093;-42
2021/09/30 04:36:46;;;;;;;7.30;2.75;;;;;;;;;;5073744;28;20534;-40
2021/09/30 04:39:15;;;;;;;5.13;2.30;;;;;;;;;;5073186;28;20056;-42
2021/09/30 04:41:44;;;;;;;8.27;2.75;;;;;;;;;;5068954;28;20031;-42
2021/09/30 04:44:11;;;;;;;6.65;2.20;;;;;;;;;;5073534;28;20053;-40
2021/09/30 04:46:39;;;;;;;5.40;2.38;;;;;;;;;;5073348;28;20021;-41
2021/09/30 04:49:06;;;;;;;4.47;2.10;;;;;;;;;;5072373;28;20036;-40
2021/09/30 04:51:33;;;;;;;7.38;2.22;;;;;;;;;;5065874;28;20109;-40
2021/09/30 04:54:00;;;;;;;12.32;2.40;;;;;;;;;;5053604;28;20035;-44
2021/09/30 04:56:29;;;;;;;9.02;2.30;;;;;;;;;;5053567;28;20160;-41
2021/09/30 04:58:56;;;;;;;6.85;2.47;;;;;;;;;;5053036;28;20024;-41
2021/09/30 05:01:23;;;;;;;4.47;2.08;;;;;;;;;;5051406;28;20385;-40
2021/09/30 05:03:50;;;;;;;5.75;2.30;;;;;;;;;;5068500;28;20038;-41
2021/09/30 05:06:18;;;;;;;6.60;2.00;;;;;;;;;;5073107;28;20031;-41
2021/09/30 05:08:48;;;;;;;3.47;2.00;;;;;;;;;;5072603;28;20063;-41
2021/09/30 05:11:15;;;;;;;3.47;1.92;;;;;;;;;;5072545;28;20388;-45
2021/09/30 05:13:43;;;;;;;4.75;2.22;;;;;;;;;;5066087;28;20033;-43
2021/09/30 05:16:15;;;;;;;8.13;2.35;;;;;;;;;;5073152;28;20384;-41
2021/09/30 05:18:47;;;;;;;9.30;2.15;;;;;;;;;;5072379;28;20028;-41
2021/09/30 05:21:15;;;;;;;6.40;2.15;;;;;;;;;;5072411;28;20017;-41
2021/09/30 05:23:42;;;;;;;5.13;2.03;;;;;;;;;;5065081;28;20039;-42
2021/09/30 05:26:09;;;;;;;6.55;2.05;;;;;;;;;;5072679;28;20063;-42
2021/09/30 05:28:36;;;;;;;6.35;2.10;;;;;;;;;;5072735;28;20038;-41
2021/09/30 05:31:04;;;;;;;8.30;2.45;;;;;;;;;;5071881;28;20017;-40
2021/09/30 05:33:31;;;;;;;4.97;2.38;;;;;;;;;;5055824;28;20033;-43
2021/09/30 05:35:58;;;;;;;4.85;2.10;;;;;;;;;;5052771;28;20029;-41
2021/09/30 05:38:25;;;;;;;10.13;2.28;;;;;;;;;;5052252;28;20090;-43
2021/09/30 05:40:54;;;;;;;5.57;2.30;;;;;;;;;;5051291;28;20033;-42
2021/09/30 05:43:29;;;;;;;5.40;2.35;;;;;;;;;;5055475;28;20050;-42
2021/09/30 05:45:57;;;;;;;6.40;2.35;;;;;;;;;;5072558;28;20028;-41
2021/09/30 05:48:24;;;;;;;4.25;2.33;;;;;;;;;;5071771;28;20040;-42
2021/09/30 05:50:52;;;;;;;7.35;2.28;;;;;;;;;;5071009;28;20056;-40
2021/09/30 05:53:19;;;;;;;3.55;2.10;;;;;;;;;;5065058;28;20040;-41
2021/09/30 05:55:47;;;;;;;4.45;2.33;;;;;;;;;;5072287;28;20028;-41
2021/09/30 05:58:14;;;;;;;5.15;2.35;;;;;;;;;;5072272;28;20083;-45
2021/09/30 06:14:13;;;;;;;6.50;2.20;;;;;;;;;;5005369;28;20038;-42
2021/09/30 06:16:48;;;;;;;3.85;1.95;;;;;;;;;;5010345;28;20029;-43
2021/09/30 06:19:21;;;;;;;8.43;2.55;;;;;;;;;;5044313;28;20043;-41
2021/09/30 06:21:52;;;;;;;3.67;1.88;;;;;;;;;;5072097;28;20411;-42
2021/09/30 06:24:20;;;;;;;3.95;1.90;;;;;;;;;;5059050;28;20021;-41
2021/09/30 06:26:48;;;;;;;5.28;2.45;;;;;;;;;;5052083;28;20118;-41
2021/09/30 06:29:15;;;;;;;5.22;1.90;;;;;;;;;;5051879;28;20441;-41
2021/09/30 06:31:42;;;;;;;5.88;2.40;;;;;;;;;;5052056;28;20388;-41
2021/09/30 06:34:09;;;;;;;4.45;2.00;;;;;;;;;;5049966;28;20025;-41
2021/09/30 06:36:37;;;;;;;5.80;1.90;;;;;;;;;;5052017;28;20385;-41
2021/09/30 06:39:04;;;;;;;4.05;1.95;;;;;;;;;;5052099;28;20021;-40
2021/09/30 06:41:31;;;;;;;3.33;2.00;;;;;;;;;;5051640;28;20036;-40
2021/09/30 06:43:58;;;;;;;3.53;2.05;;;;;;;;;;5051079;28;20135;-41
2021/09/30 06:46:25;;;;;;;4.03;2.20;;;;;;;;;;5073460;28;20368;-40
2021/09/30 06:48:53;;;;;;;5.07;2.30;;;;;;;;;;5075735;28;20056;-41
2021/09/30 06:51:20;;;;;;;5.07;2.28;;;;;;;;;;5075338;28;20127;-41
2021/09/30 06:53:48;;;;;;;5.43;2.20;;;;;;;;;;5075254;28;20483;-43
2021/09/30 06:56:20;;;;;;;2.53;1.88;;;;;;;;;;5054123;28;20086;-42
2021/09/30 06:58:47;;;;;;;;;;;;;;;;;;5056122;28;20035;-41
2021/09/30 07:01:17;;;;;;;3.70;2.10;;;;;;;;;;5055401;28;19976;-41
2021/09/30 07:03:45;;;;;;;3.38;2.25;;;;;;;;;;5054835;28;20102;-42
2021/09/30 07:06:13;;;;;;;3.85;2.17;;;;;;;;;;5051988;28;20021;-41
2021/09/30 07:08:41;;;;;;;4.15;2.30;;;;;;;;;;5055385;28;20093;-42
2021/09/30 07:11:08;;;;;;;4.43;2.40;;;;;;;;;;5055274;28;20416;-42
2021/09/30 07:13:35;;;;;;;4.82;2.40;;;;;;;;;;5054580;28;20104;-40
2021/09/30 07:16:02;;;;;;;4.90;2.00;;;;;;;;;;5061681;28;20024;-42
2021/09/30 07:18:29;;;;;;;4.72;2.03;;;;;;;;;;5075120;28;20373;-41
2021/09/30 07:21:00;;;;;;;3.88;2.28;;;;;;;;;;5074764;28;20029;-40
2021/09/30 07:23:28;;;;;;;4.00;2.40;;;;;;;;;;5075137;28;20402;-42
2021/09/30 07:25:55;;;;;;;4.53;2.40;;;;;;;;;;5068546;28;20430;-42
2021/09/30 07:28:24;;;;;;;8.00;2.47;;;;;;;;;;5075068;28;20446;-40
2021/09/30 07:30:51;;;;;;;4.00;2.35;;;;;;;;;;5074547;28;20798;-40
2021/09/30 07:33:20;;;;;;;3.70;2.13;;;;;;;;;;5074614;28;20492;-41
2021/09/30 07:35:48;;;;;;;5.70;2.28;;;;;;;;;;5068401;28;20057;-42
2021/09/30 07:38:15;;;;;;;3.30;2.00;;;;;;;;;;5074900;28;20079;-42
2021/09/30 07:40:42;;;;;;;5.57;1.88;;;;;;;;;;5074704;28;20468;-41
2021/09/30 07:43:09;;;;;;;3.97;2.00;;;;;;;;;;5074448;28;20484;-40
2021/09/30 07:45:36;;;;;;;3.55;2.03;;;;;;;;;;5068855;28;20100;-40
2021/09/30 07:48:03;;;;;;;4.25;2.20;;;;;;;;;;5073847;28;20479;-40
2021/09/30 07:50:30;;;;;;;3.13;1.70;;;;;;;;;;5074371;28;20472;-41
2021/09/30 07:52:57;;;;;;;2.63;1.73;;;;;;;;;;5074255;28;20479;-41
2021/09/30 07:55:25;;;;;;;3.92;2.30;;;;;;;;;;5072426;28;20029;-41
2021/09/30 07:57:52;;;;;;;4.15;2.20;;;;;;;;;;5053831;28;20131;-43
2021/09/30 08:00:19;;;;;;;4.03;1.90;;;;;;;;;;5054345;28;20041;-42
2021/09/30 08:02:46;;;;;;;3.85;1.90;;;;;;;;;;5054113;28;20079;-41
2021/09/30 08:05:13;;;;;;;5.72;2.30;;;;;;;;;;5053787;28;20025;-41
2021/09/30 08:07:40;;;;;;;2.80;1.70;;;;;;;;;;5064524;28;20287;-41
2021/09/30 08:10:07;;;;;;;4.47;2.05;;;;;;;;;;5074278;28;20062;-41
2021/09/30 08:12:34;;;;;;;3.10;2.13;;;;;;;;;;5056061;28;20526;-41
2021/09/30 08:15:01;;;;;;;5.10;1.73;;;;;;;;;;5073703;28;20021;-41
2021/09/30 08:17:28;;;;;;;3.80;2.15;;;;;;;;;;5057768;28;20055;-41
2021/09/30 08:19:55;;;;;;;4.18;1.98;;;;;;;;;;5054122;28;20135;-44
2021/09/30 08:22:22;;;;;;;5.95;1.88;;;;;;;;;;5053863;28;20021;-41
2021/09/30 08:24:49;;;;;;;2.28;1.67;;;;;;;;;;5053585;28;20155;-41
2021/09/30 08:27:17;;;;;;;6.55;2.15;;;;;;;;;;5050716;28;20036;-41
2021/09/30 08:29:44;;;;;;;2.20;1.85;;;;;;;;;;5053788;28;20021;-41
2021/09/30 08:32:11;;;;;;;4.45;1.98;;;;;;;;;;5053955;28;20358;-45
2021/09/30 08:34:38;;;;;;;5.85;1.88;;;;;;;;;;5053459;28;20013;-40
2021/09/30 08:37:05;;;;;;;3.50;1.83;;;;;;;;;;5051895;28;20032;-43
2021/09/30 08:39:32;;;;;;;4.45;2.03;;;;;;;;;;5053506;28;20381;-42
2021/09/30 08:41:59;;;;;;;3.33;1.80;;;;;;;;;;5053697;28;20431;-41
2021/09/30 08:44:26;;;;;;;3.45;1.73;;;;;;;;;;5053342;28;20025;-42
2021/09/30 08:46:53;;;;;;;5.78;1.60;;;;;;;;;;5051848;28;20041;-41
2021/09/30 08:49:21;;;;;;;3.47;1.90;;;;;;;;;;5052842;28;20037;-42
2021/09/30 08:51:48;;;;;;;4.32;1.90;;;;;;;;;;5067825;28;20450;-44
2021/09/30 08:54:15;;;;;;;3.85;1.52;;;;;;;;;;5073129;28;20024;-42
2021/09/30 08:56:42;;;;;;;3.72;1.80;;;;;;;;;;5072641;28;20024;-40
2021/09/30 08:59:16;;;;;;;3.40;1.95;;;;;;;;;;5068224;28;20028;-42
2021/09/30 09:01:47;;;;;;;3.50;1.40;;;;;;;;;;5073174;28;20029;-41
2021/09/30 09:04:18;;;;;;;2.63;1.77;;;;;;;;;;5072901;28;20532;-45
2021/09/30 09:06:47;;;;;;;4.70;1.42;;;;;;;;;;5071819;28;20035;-42
2021/09/30 09:09:21;;;;;;;3.08;1.60;;;;;;;;;;5068000;28;20115;-41
2021/09/30 09:11:49;;;;;;;3.78;1.50;;;;;;;;;;5073071;28;20534;-44
2021/09/30 09:14:27;;;;;;;3.50;1.48;;;;;;;;;;5072626;28;20035;-44
2021/09/30 09:17:14;;;;;;;2.55;1.30;;;;;;;;;;5072583;28;20025;-43
2021/09/30 09:19:42;;;;;;;2.25;1.42;;;;;;;;;;5068039;28;20027;-46
2021/09/30 09:22:14;;;;;;;4.05;1.60;;;;;;;;;;5072617;28;20028;-42
2021/09/30 09:25:01;;;;;;;7.20;1.77;;;;;;;;;;5072289;28;20082;-42
2021/09/30 09:27:46;;;;;;;2.42;1.60;;;;;;;;;;5072219;28;20774;-42
2021/09/30 09:30:31;;;;;;;3.97;1.38;;;;;;;;;;5069946;28;20028;-43
2021/09/30 09:33:16;;;;;;;4.63;1.42;;;;;;;;;;5072494;28;20028;-40
2021/09/30 09:36:12;;;;;;;4.40;1.30;;;;;;;;;;5072343;28;20112;-43
2021/09/30 09:38:46;;;;;;;3.75;1.60;;;;;;;;;;5066869;28;20039;-40
2021/09/30 09:41:16;;;;;;;3.03;1.38;;;;;;;;;;5072306;28;20384;-41
2021/09/30 09:43:45;;;;;;;3.28;1.77;;;;;;;;;;5072398;28;20032;-42
2021/09/30 09:46:13;;;;;;;2.08;1.52;;;;;;;;;;5072335;28;20108;-41
2021/09/30 09:48:40;;;;;;;3.08;1.20;;;;;;;;;;5066181;28;20042;-41
2021/09/30 09:51:12;;;;;;;2.03;1.20;;;;;;;;;;5071926;28;20040;-42
2021/09/30 09:53:40;;;;;;;1.98;1.10;;;;;;;;;;5072156;28;20034;-41
2021/09/30 09:56:13;;;;;;;3.45;1.80;;;;;;;;;;5053893;28;20392;-41
2021/09/30 09:58:44;;;;;;;3.22;1.77;;;;;;;;;;5066244;28;20082;-41
2021/09/30 10:01:11;;;;;;;2.47;1.42;;;;;;;;;;5051658;28;20027;-41
2021/09/30 10:03:38;;;;;;;3.42;1.25;;;;;;;;;;5052207;28;20036;-40
2021/09/30 10:06:06;;;;;;;3.10;1.30;;;;;;;;;;5034057;28;20539;-41
2021/09/30 10:08:33;;;;;;;2.20;1.60;;;;;;;;;;5051698;28;20048;-40
2021/09/30 10:11:01;;;;;;;3.33;1.42;;;;;;;;;;5066932;28;20095;-44
2021/09/30 10:13:32;;;;;;;2.10;1.23;;;;;;;;;;5072562;28;20380;-41
2021/09/30 10:15:59;;;;;;;4.40;1.50;;;;;;;;;;5072081;28;20025;-41
2021/09/30 10:18:28;;;;;;;3.83;1.33;;;;;;;;;;5071930;28;20426;-44
2021/09/30 10:20:56;;;;;;;2.13;1.40;;;;;;;;;;5052326;28;20017;-41
2021/09/30 10:23:24;;;;;;;2.13;1.10;;;;;;;;;;5052341;28;20033;-40
2021/09/30 10:25:52;;;;;;;3.90;1.35;;;;;;;;;;5052424;28;20048;-40
2021/09/30 10:28:20;;;;;;;3.47;1.25;;;;;;;;;;5051955;28;20033;-40
2021/09/30 10:30:50;;;;;;;2.45;1.30;;;;;;;;;;5049692;28;20017;-40
2021/09/30 10:33:20;;;;;;;1.88;1.10;;;;;;;;;;5052177;28;20487;-41
2021/09/30 10:35:54;;;;;;;2.15;1.10;;;;;;;;;;5052276;28;20480;-40
2021/09/30 10:38:21;;;;;;;2.45;1.40;;;;;;;;;;5051804;28;20021;-41
2021/09/30 10:41:09;;;;;;;2.13;1.17;;;;;;;;;;5057228;28;20031;-40
2021/09/30 10:43:46;;;;;;;4.35;1.33;;;;;;;;;;5072044;28;20079;-42
2021/09/30 10:46:22;;;;;;;1.33;0.95;;;;;;;;;;5071450;28;20365;-43
2021/09/30 10:48:50;;;;;;;3.17;1.10;;;;;;;;;;5053106;28;20032;-40
2021/09/30 10:51:18;;;;;;;2.28;1.30;;;;;;;;;;5063967;28;20495;-39
2021/09/30 10:53:48;;;;;;;4.57;1.30;;;;;;;;;;5070519;28;20392;-41
2021/09/30 10:56:27;;;;;;;4.05;1.25;;;;;;;;;;5070417;28;20098;-40
2021/09/30 10:59:19;;;;;;;1.10;1.00;;;;;;;;;;5074064;28;20443;-40
2021/09/30 11:01:49;;;;;;;2.28;1.40;;;;;;;;;;5070336;28;20043;-42
2021/09/30 11:04:17;;;;;;;3.60;1.27;;;;;;;;;;5067489;28;21055;-41
2021/09/30 11:07:03;;;;;;;2.83;1.20;;;;;;;;;;5069882;28;20467;-41
2021/09/30 11:09:30;;;;;;;6.45;1.50;;;;;;;;;;5072346;28;20444;-43
2021/09/30 11:12:08;;;;;;;5.90;1.05;;;;;;;;;;5064697;28;20033;-51
2021/09/30 11:14:52;;;;;;;4.57;1.27;;;;;;;;;;5060378;28;20020;-40
2021/09/30 11:17:45;;;;;;;3.30;1.48;;;;;;;;;;5070105;28;20711;-43
2021/09/30 11:20:31;;;;;;;5.53;1.20;;;;;;;;;;5065502;28;20063;-43
2021/09/30 11:22:59;;;;;;;10.13;1.38;;;;;;;;;;5068693;28;20036;-44
2021/09/30 11:25:48;;;;;;;2.67;1.10;;;;;;;;;;5068759;28;20380;-45
2021/09/30 11:28:15;;;;;;;2.03;1.10;;;;;;;;;;5067830;28;20033;-45
2021/09/30 11:30:43;;;;;;;6.43;1.50;;;;;;;;;;5067228;28;20707;-42
2021/09/30 11:33:10;;;;;;;1.65;0.98;;;;;;;;;;5052202;28;20031;-48
2021/09/30 11:35:37;;;;;;;5.50;1.25;;;;;;;;;;5072826;28;20028;-41
2021/09/30 11:38:04;;;;;;;5.97;1.67;;;;;;;;;;5073038;28;20100;-42
2021/09/30 11:40:31;;;;;;;3.10;1.00;;;;;;;;;;5072296;28;20179;-42
2021/09/30 11:42:59;;;;;;;4.05;1.20;;;;;;;;;;5066496;28;20490;-44
2021/09/30 11:45:30;;;;;;;5.45;1.20;;;;;;;;;;5073405;28;20078;-42
2021/09/30 11:48:05;;;;;;;4.55;1.27;;;;;;;;;;5069682;28;20795;-44
2021/09/30 11:50:32;;;;;;;4.75;1.17;;;;;;;;;;5053660;28;20515;-43
2021/09/30 11:53:10;;;;;;;4.38;1.25;;;;;;;;;;5062576;28;20471;-44
2021/09/30 11:55:41;;;;;;;10.27;1.33;;;;;;;;;;5073558;28;20545;-39
2021/09/30 11:58:09;;;;;;;9.02;1.15;;;;;;;;;;5072084;28;20107;-45
2021/09/30 12:00:37;;;;;;;6.28;1.20;;;;;;;;;;5073163;28;20464;-45
2021/09/30 12:03:07;;;;;;;2.50;0.90;;;;;;;;;;5055673;28;20480;-46
2021/09/30 12:05:35;;;;;;;3.90;1.13;;;;;;;;;;5053978;28;20480;-42
2021/09/30 12:08:04;;;;;;;4.88;1.00;;;;;;;;;;5052851;28;20591;-44
2021/09/30 12:10:32;;;;;;;4.53;1.00;;;;;;;;;;5051610;28;20056;-41
2021/09/30 12:13:00;;;;;;;3.08;1.13;;;;;;;;;;5059605;28;20025;-39
2021/09/30 12:15:27;;;;;;;6.30;1.23;;;;;;;;;;5072015;28;20029;-39
2021/09/30 12:17:55;;;;;;;6.50;0.90;;;;;;;;;;5073287;28;20028;-42
2021/09/30 12:20:22;;;;;;;5.10;1.10;;;;;;;;;;5071907;28;20583;-47
2021/09/30 12:22:53;;;;;;;2.13;1.05;;;;;;;;;;5046493;28;20476;-43
2021/09/30 12:25:28;;;;;;;5.20;0.90;;;;;;;;;;5053020;28;20025;-43
2021/09/30 12:27:57;;;;;;;6.38;1.08;;;;;;;;;;5053225;28;20033;-42
2021/09/30 12:30:26;;;;;;;5.95;1.13;;;;;;;;;;5052466;28;20032;-40
2021/09/30 12:32:56;;;;;;;6.05;3.65;;;;;;;;;;5053316;28;20027;-39
2021/09/30 12:35:38;;;;;;;24.63;10.80;;;;;;;;;;5072506;28;20108;-43
2021/09/30 12:38:10;;;;;;;35.75;16.60;;;;;;;;;;5073125;28;20119;-40
2021/09/30 12:40:39;;;;;;;37.80;18.10;;;;;;;;;;5072351;28;20028;-41
2021/09/30 12:43:11;;;;;;;38.58;20.83;;;;;;;;;;5050531;28;20029;-39
2021/09/30 12:45:41;;;;;;;59.67;31.27;;;;;;;;;;5072224;28;20115;-38
2021/09/30 12:48:13;;;;;;;47.20;24.23;;;;;;;;;;5072831;28;20036;-41
2021/09/30 12:50:48;;;;;;;44.63;23.47;;;;;;;;;;5071762;28;20045;-41
2021/09/30 12:53:17;;;;;;;45.40;24.40;;;;;;;;;;5064428;28;20085;-40
2021/09/30 12:55:44;;;;;;;45.50;24.58;;;;;;;;;;5071105;28;20096;-40
2021/09/30 12:58:47;;;;;;;50.30;23.35;;;;;;;;;;5072376;28;20028;-39
2021/09/30 13:01:36;;;;;;;44.60;22.08;;;;;;;;;;4971212;28;20541;-39
2021/09/30 13:04:09;;;;;;;45.13;21.23;;;;;;;;;;5057097;28;20033;-40
2021/09/30 13:06:38;;;;;;;46.80;21.23;;;;;;;;;;5070867;28;20017;-40
2021/09/30 13:09:05;;;;;;;46.22;21.40;;;;;;;;;;5072009;28;20098;-44
2021/09/30 13:11:36;;;;;;;36.50;18.40;;;;;;;;;;5071346;28;20024;-43
2021/09/30 13:14:16;;;;;;;34.08;18.23;;;;;;;;;;5045083;28;20492;-42
2021/09/30 13:16:43;;;;;;;50.85;19.35;;;;;;;;;;5054282;28;20029;-45
2021/09/30 13:19:10;;;;;;;36.30;18.65;;;;;;;;;;5053111;28;20392;-39
2021/09/30 13:21:55;;;;;;;37.65;19.55;;;;;;;;;;5071005;28;20087;-43
2021/09/30 13:24:22;;;;;;;27.85;16.30;;;;;;;;;;5058431;28;20021;-41
2021/09/30 13:26:50;;;;;;;33.10;16.73;;;;;;;;;;5063614;28;20033;-41
2021/09/30 13:29:17;;;;;;;29.77;16.45;;;;;;;;;;5071197;28;20025;-40
2021/09/30 13:31:44;;;;;;;27.73;13.88;;;;;;;;;;5071268;28;20468;-38
2021/09/30 13:34:11;;;;;;;30.10;16.17;;;;;;;;;;5061930;28;20035;-40
2021/09/30 13:36:39;;;;;;;34.55;14.48;;;;;;;;;;5069036;28;20059;-43
2021/09/30 13:39:07;;;;;;;27.10;13.55;;;;;;;;;;5072243;28;20086;-43
2021/09/30 13:41:35;;;;;;;27.85;13.82;;;;;;;;;;5071857;28;20024;-41
2021/09/30 13:44:02;;;;;;;25.20;13.30;;;;;;;;;;5066188;28;20032;-44
2021/09/30 13:46:29;;;;;;;20.98;11.73;;;;;;;;;;5049937;28;20032;-43
2021/09/30 13:48:56;;;;;;;20.35;11.85;;;;;;;;;;5051225;28;20032;-41
2021/09/30 13:51:23;;;;;;;21.67;11.35;;;;;;;;;;5060247;28;20040;-43
2021/09/30 13:53:50;;;;;;;22.83;11.05;;;;;;;;;;5070815;28;20412;-47
2021/09/30 13:56:19;;;;;;;20.35;9.75;;;;;;;;;;5066729;28;20141;-43
2021/09/30 13:58:46;;;;;;;18.25;9.48;;;;;;;;;;5074460;28;20108;-41
2021/09/30 14:01:14;;;;;;;16.42;9.07;;;;;;;;;;5091931;28;20028;-41
2021/09/30 14:03:41;;;;;;;25.95;9.52;;;;;;;;;;5090964;28;20036;-41
2021/09/30 14:06:08;;;;;;;14.88;8.18;;;;;;;;;;5069323;28;20027;-40
2021/09/30 14:08:35;;;;;;;16.92;7.80;;;;;;;;;;5070194;28;20024;-40
2021/09/30 14:11:02;;;;;;;20.70;8.70;;;;;;;;;;5052046;28;20035;-41
2021/09/30 14:13:29;;;;;;;23.00;8.27;;;;;;;;;;5070536;28;20031;-38
2021/09/30 14:15:56;;;;;;;19.00;7.80;;;;;;;;;;5066301;28;20020;-40
2021/09/30 14:18:23;;;;;;;16.17;7.20;;;;;;;;;;5069452;28;20447;-39
2021/09/30 14:20:51;;;;;;;14.90;6.90;;;;;;;;;;5071930;28;20055;-41
2021/09/30 14:23:19;;;;;;;17.63;6.72;;;;;;;;;;5071633;28;20029;-38
2021/09/30 14:25:46;;;;;;;20.80;7.25;;;;;;;;;;5067534;28;20468;-40
2021/09/30 14:28:13;;;;;;;16.13;5.82;;;;;;;;;;5071176;28;20043;-38
2021/09/30 14:30:40;;;;;;;14.68;6.00;;;;;;;;;;5070748;28;20017;-39
2021/09/30 14:33:07;;;;;;;11.52;5.55;;;;;;;;;;5070633;28;20017;-39
2021/09/30 14:35:34;;;;;;;10.75;4.65;;;;;;;;;;5065827;28;20025;-41
2021/09/30 14:38:01;;;;;;;9.45;4.97;;;;;;;;;;5070545;28;20085;-40
2021/09/30 14:40:28;;;;;;;11.98;4.95;;;;;;;;;;5053462;28;20381;-40
2021/09/30 14:42:55;;;;;;;9.45;4.90;;;;;;;;;;5070480;28;20103;-38
2021/09/30 14:45:24;;;;;;;14.05;4.93;;;;;;;;;;5071765;28;20361;-40
2021/09/30 14:47:51;;;;;;;11.82;4.53;;;;;;;;;;5082644;28;20039;-40
2021/09/30 14:50:18;;;;;;;21.50;4.90;;;;;;;;;;5081076;28;20027;-40
2021/09/30 14:52:46;;;;;;;10.70;4.60;;;;;;;;;;5086044;28;20052;-38
2021/09/30 14:55:13;;;;;;;14.50;3.75;;;;;;;;;;5055372;28;20029;-45
2021/09/30 14:57:39;;;;;;;15.18;3.65;;;;;;;;;;5061863;28;20056;-55
2021/09/30 15:00:11;;;;;;;18.90;2.80;;;;;;;;;;5068654;28;20029;-48
2021/09/30 15:02:38;;;;;;;11.37;2.30;;;;;;;;;;5069567;28;20048;-47
2021/09/30 15:05:05;;;;;;;14.07;3.13;;;;;;;;;;5070217;28;20024;-42
2021/09/30 15:07:32;;;;;;;12.80;2.95;;;;;;;;;;5068306;28;20130;-46
2021/09/30 15:09:59;;;;;;;7.40;2.60;;;;;;;;;;5071439;28;20017;-40
2021/09/30 15:12:26;;;;;;;9.52;2.10;;;;;;;;;;5073146;28;20064;-40
2021/09/30 15:14:53;;;;;;;12.40;2.78;;;;;;;;;;5072920;28;20032;-44
2021/09/30 15:17:34;;;;;;;9.15;2.90;;;;;;;;;;5071878;28;20055;-40
2021/09/30 15:22:31;;;;;;;9.07;2.08;;;;;;;;;;5065628;28;20116;-46
2021/09/30 15:24:58;;;;;;;10.18;2.20;;;;;;;;;;5072392;28;20028;-43
2021/09/30 15:27:25;;;;;;;8.40;2.88;;;;;;;;;;5072999;28;20034;-41
2021/09/30 15:29:52;;;;;;;12.68;2.40;;;;;;;;;;5065252;28;20033;-41
2021/09/30 15:32:20;;;;;;;15.05;2.85;;;;;;;;;;5070276;28;20052;-41
2021/09/30 15:34:48;;;;;;;19.77;4.45;;;;;;;;;;5072112;28;20036;-41
2021/09/30 15:37:16;;;;;;;15.75;4.88;;;;;;;;;;5074154;28;20104;-42
2021/09/30 15:39:43;;;;;;;23.23;7.07;;;;;;;;;;5073427;28;20100;-43
2021/09/30 15:42:15;;;;;;;18.10;7.82;;;;;;;;;;5074093;28;20024;-42
2021/09/30 15:44:42;;;;;;;;;;;;;;;;;;5052333;28;20059;-39
2021/09/30 15:47:09;;;;;;;22.20;8.90;;;;;;;;;;5055215;28;19913;-43
2021/09/30 15:49:36;;;;;;;20.60;7.20;;;;;;;;;;5072549;28;20035;-45
2021/09/30 15:52:03;;;;;;;22.02;7.53;;;;;;;;;;5071750;28;20098;-40
2021/09/30 15:54:32;;;;;;;22.42;7.18;;;;;;;;;;5063536;28;20028;-43
2021/09/30 15:56:59;;;;;;;25.48;7.47;;;;;;;;;;5074251;28;20095;-42
2021/09/30 15:59:26;;;;;;;22.67;7.68;;;;;;;;;;5073957;28;20085;-41
2021/09/30 16:01:53;;;;;;;23.85;7.50;;;;;;;;;;5073937;28;20472;-40
2021/09/30 16:04:20;;;;;;;18.23;7.05;;;;;;;;;;5059296;28;20028;-45
2021/09/30 16:06:47;;;;;;;17.83;6.25;;;;;;;;;;5057578;28;20066;-41
2021/09/30 16:09:14;;;;;;;23.02;6.03;;;;;;;;;;5065736;28;20132;-39
2021/09/30 16:11:41;;;;;;;25.30;6.75;;;;;;;;;;5068595;28;20361;-39
2021/09/30 16:14:08;;;;;;;16.40;5.70;;;;;;;;;;5060895;28;20415;-39
2021/09/30 16:16:36;;;;;;;15.60;5.00;;;;;;;;;;5065080;28;20423;-39
2021/09/30 16:19:03;;;;;;;16.15;4.88;;;;;;;;;;5068827;28;20081;-40
2021/09/30 16:21:30;;;;;;;14.98;4.57;;;;;;;;;;5068242;28;20025;-39
2021/09/30 16:24:04;;;;;;;12.82;3.75;;;;;;;;;;5061319;28;20024;-40
2021/09/30 16:26:31;;;;;;;10.80;3.42;;;;;;;;;;5064577;28;20024;-40
2021/09/30 16:28:58;;;;;;;10.80;3.20;;;;;;;;;;5071483;28;20043;-40
2021/09/30 16:31:26;;;;;;;13.05;3.85;;;;;;;;;;5067284;28;20044;-41
2021/09/30 16:33:53;;;;;;;11.55;4.00;;;;;;;;;;5064068;28;20032;-40
2021/09/30 16:36:21;;;;;;;11.30;3.63;;;;;;;;;;5067794;28;20095;-40
2021/09/30 16:38:49;;;;;;;10.70;3.00;;;;;;;;;;5070738;28;20108;-39
2021/09/30 16:41:16;;;;;;;9.82;3.38;;;;;;;;;;5071492;28;20024;-40
2021/09/30 16:43:44;;;;;;;11.88;3.40;;;;;;;;;;5052830;28;20056;-39
2021/09/30 16:46:11;;;;;;;11.40;3.30;;;;;;;;;;5064992;28;20411;-39
2021/09/30 16:48:38;;;;;;;9.63;3.00;;;;;;;;;;5072089;28;20033;-40
2021/09/30 16:51:05;;;;;;;12.13;3.20;;;;;;;;;;5065029;28;20044;-43
2021/09/30 16:53:32;;;;;;;12.35;3.00;;;;;;;;;;5066839;28;20452;-40
2021/09/30 16:56:01;;;;;;;12.40;3.13;;;;;;;;;;5061914;28;20553;-40
2021/09/30 16:58:28;;;;;;;11.73;3.28;;;;;;;;;;5069165;28;20086;-40
2021/09/30 17:00:55;;;;;;;11.57;2.80;;;;;;;;;;5067941;28;20039;-42
2021/09/30 17:03:22;;;;;;;8.88;2.60;;;;;;;;;;5067626;28;20040;-40
2021/09/30 17:05:49;;;;;;;12.48;2.53;;;;;;;;;;5063924;28;20625;-40
2021/09/30 17:08:16;;;;;;;8.52;2.85;;;;;;;;;;5066506;28;20033;-40
2021/09/30 17:10:43;;;;;;;9.20;2.40;;;;;;;;;;5063842;28;20070;-41
2021/09/30 17:13:10;;;;;;;7.72;2.15;;;;;;;;;;5066215;28;20033;-39
2021/09/30 17:15:37;;;;;;;8.45;2.50;;;;;;;;;;5058310;28;20470;-41
2021/09/30 17:18:05;;;;;;;11.27;2.30;;;;;;;;;;5059780;28;20357;-39
2021/09/30 17:20:33;;;;;;;10.00;1.98;;;;;;;;;;5064325;28;20016;-40
2021/09/30 17:23:00;;;;;;;11.00;2.15;;;;;;;;;;5064759;28;20040;-40
2021/09/30 17:25:28;;;;;;;9.32;1.83;;;;;;;;;;5057738;28;20401;-40
2021/09/30 17:27:55;;;;;;;6.85;2.13;;;;;;;;;;5065266;28;20033;-40
2021/09/30 17:30:22;;;;;;;8.50;2.47;;;;;;;;;;5069813;28;20388;-40
2021/09/30 17:32:51;;;;;;;11.18;2.47;;;;;;;;;;5063506;28;20036;-40
2021/09/30 17:35:18;;;;;;;13.45;2.10;;;;;;;;;;5058778;28;20029;-40
2021/09/30 17:37:46;;;;;;;6.47;1.80;;;;;;;;;;5061281;28;20395;-40
2021/09/30 17:40:14;;;;;;;5.88;1.67;;;;;;;;;;5066449;28;20422;-41